Time;durP1;ratioP1;P1;durP2;ratioP2;P2;SDS_P1;SDS_P2;PMS_P1;PMS_P2;Temp;Humidity;BMP_temperature;BMP_pressure;BME280_temperature;BME280_humidity;BME280_pressure;Samples;Min_cycle;Max_cycle;Signal;HPM_P1;HPM_P2
2023/05/15 00:00:26;;;;;;;8.33;7.17;;;13.20;99.90;;;;;;5029823;28;20037;-70
2023/05/15 00:02:52;;;;;;;8.18;6.35;;;13.30;99.90;;;;;;5029194;28;20028;-71
2023/05/15 00:05:17;;;;;;;7.97;6.53;;;13.30;99.90;;;;;;5031118;28;20129;-70
2023/05/15 00:07:43;;;;;;;9.13;7.27;;;13.20;99.90;;;;;;5030374;28;20084;-70
2023/05/15 00:10:09;;;;;;;9.90;8.00;;;13.20;99.90;;;;;;5031237;28;20136;-70
2023/05/15 00:12:35;;;;;;;12.35;7.72;;;13.20;99.90;;;;;;5029309;28;20033;-71
2023/05/15 00:15:01;;;;;;;11.05;7.68;;;13.10;99.90;;;;;;5028778;28;20053;-71
2023/05/15 00:17:26;;;;;;;12.18;8.10;;;13.10;99.90;;;;;;5029824;28;20038;-71
2023/05/15 00:19:56;;;;;;;10.57;8.17;;;13.10;99.90;;;;;;5028790;28;20519;-70
2023/05/15 00:22:22;;;;;;;11.23;7.85;;;13.10;99.90;;;;;;5027296;28;20044;-70
2023/05/15 00:24:47;;;;;;;11.85;8.43;;;13.10;99.90;;;;;;5029532;28;20021;-70
2023/05/15 00:27:13;;;;;;;11.53;7.73;;;13.10;99.90;;;;;;5033900;28;20084;-69
2023/05/15 00:29:39;;;;;;;17.03;9.27;;;13.10;99.90;;;;;;5029889;28;20099;-70
2023/05/15 00:32:04;;;;;;;10.83;8.33;;;13.10;99.90;;;;;;5030274;28;20052;-70
2023/05/15 00:34:30;;;;;;;9.73;8.15;;;13.20;99.90;;;;;;5044336;28;20034;-71
2023/05/15 00:36:56;;;;;;;12.97;7.73;;;13.20;99.90;;;;;;5030189;28;20041;-71
2023/05/15 00:39:21;;;;;;;10.25;7.85;;;13.10;99.90;;;;;;5029418;28;20048;-70
2023/05/15 00:41:48;;;;;;;9.57;7.73;;;13.10;99.90;;;;;;5030386;28;20054;-70
2023/05/15 00:44:15;;;;;;;10.70;7.68;;;13.10;99.90;;;;;;5026197;28;20024;-70
2023/05/15 00:46:44;;;;;;;11.38;7.38;;;13.10;99.90;;;;;;5029247;28;20029;-71
2023/05/15 00:49:12;;;;;;;15.38;7.25;;;13.00;99.90;;;;;;5029273;28;20036;-71
2023/05/15 00:51:40;;;;;;;9.88;7.38;;;12.90;99.90;;;;;;5028899;28;20306;-71
2023/05/15 00:54:07;;;;;;;10.20;8.20;;;12.90;99.90;;;;;;5044914;28;20033;-70
2023/05/15 00:56:33;;;;;;;9.70;7.68;;;13.10;99.90;;;;;;5028831;28;20052;-71
2023/05/15 00:59:03;;;;;;;10.13;8.10;;;13.10;99.90;;;;;;5030165;28;20024;-71
2023/05/15 01:01:33;;;;;;;10.07;7.95;;;13.00;99.90;;;;;;5029290;28;20025;-71
2023/05/15 01:04:02;;;;;;;15.30;9.00;;;13.00;99.90;;;;;;5029046;28;20026;-71
2023/05/15 01:06:30;;;;;;;10.10;8.30;;;13.00;99.90;;;;;;5029249;28;20026;-71
2023/05/15 01:08:58;;;;;;;10.88;8.93;;;13.10;99.90;;;;;;5029158;28;20064;-71
2023/05/15 01:11:27;;;;;;;14.60;9.43;;;13.00;99.90;;;;;;5029345;28;20049;-71
2023/05/15 01:13:52;;;;;;;13.60;9.60;;;13.10;99.90;;;;;;5044774;28;20097;-71
2023/05/15 01:16:20;;;;;;;14.57;10.57;;;13.00;99.90;;;;;;5029571;28;20112;-71
2023/05/15 01:18:46;;;;;;;20.83;10.55;;;13.00;99.90;;;;;;5027636;28;20510;-71
2023/05/15 01:21:26;;;;;;;13.10;11.07;;;13.10;99.90;;;;;;5028063;28;20049;-70
2023/05/15 01:24:06;;;;;;;16.42;11.68;;;13.10;99.90;;;;;;5029018;28;20421;-71
2023/05/15 01:26:50;;;;;;;17.80;11.60;;;13.10;99.90;;;;;;5025982;28;20033;-70
2023/05/15 01:29:18;;;;;;;14.30;11.52;;;13.10;99.90;;;;;;5029788;28;20701;-71
2023/05/15 01:31:49;;;;;;;20.63;12.10;;;13.10;99.90;;;;;;5028671;28;20049;-70
2023/05/15 01:34:18;;;;;;;18.38;12.40;;;13.10;99.90;;;;;;5026031;28;20028;-71
2023/05/15 01:36:56;;;;;;;19.33;13.25;;;13.10;99.90;;;;;;5027802;28;20409;-70
2023/05/15 01:39:25;;;;;;;18.60;12.60;;;13.10;99.90;;;;;;5026508;28;20071;-70
2023/05/15 01:42:01;;;;;;;16.45;12.30;;;13.10;99.90;;;;;;5027733;28;20175;-70
2023/05/15 01:44:30;;;;;;;22.83;13.50;;;13.10;99.90;;;;;;5025919;28;20393;-71
2023/05/15 01:47:00;;;;;;;18.10;12.82;;;13.20;99.90;;;;;;5028180;28;20041;-70
2023/05/15 01:49:27;;;;;;;16.70;11.98;;;13.10;99.90;;;;;;5028581;28;20056;-70
2023/05/15 01:52:02;;;;;;;26.80;13.15;;;13.10;99.90;;;;;;5059142;28;20030;-70
2023/05/15 01:54:28;;;;;;;16.63;12.35;;;13.00;99.90;;;;;;5028524;28;20037;-71
2023/05/15 01:56:56;;;;;;;17.98;12.65;;;13.00;99.90;;;;;;5028538;28;20033;-71
2023/05/15 01:59:23;;;;;;;16.05;12.38;;;13.00;99.90;;;;;;5028465;28;20033;-71
2023/05/15 02:01:50;;;;;;;23.05;13.43;;;13.00;99.90;;;;;;5028012;28;20512;-71
2023/05/15 02:04:17;;;;;;;16.92;11.90;;;13.00;99.90;;;;;;5028332;28;20509;-71
2023/05/15 02:06:43;;;;;;;18.88;13.38;;;13.00;99.90;;;;;;5060104;28;20037;-71
2023/05/15 02:09:09;;;;;;;17.27;12.45;;;12.90;99.90;;;;;;5021910;28;20022;-70
2023/05/15 02:11:36;;;;;;;18.63;12.90;;;12.90;99.90;;;;;;5028476;28;20029;-71
2023/05/15 02:14:03;;;;;;;16.73;13.13;;;12.90;99.90;;;;;;5028477;28;20064;-70
2023/05/15 02:16:29;;;;;;;18.55;13.05;;;12.90;99.90;;;;;;5027967;28;20034;-70
2023/05/15 02:18:55;;;;;;;20.17;13.65;;;12.80;99.90;;;;;;5027824;28;20037;-70
2023/05/15 02:21:20;;;;;;;18.27;12.18;;;12.90;99.90;;;;;;5027033;28;20053;-70
2023/05/15 02:23:46;;;;;;;17.73;11.80;;;12.80;99.90;;;;;;5025013;28;20021;-70
2023/05/15 02:26:30;;;;;;;16.70;11.97;;;12.80;99.90;;;;;;5027904;28;20128;-70
2023/05/15 02:29:20;;;;;;;20.65;11.57;;;12.80;99.90;;;;;;5028203;28;20042;-70
2023/05/15 02:31:54;;;;;;;17.17;11.13;;;12.80;99.90;;;;;;5021467;28;20103;-71
2023/05/15 02:34:26;;;;;;;16.50;12.00;;;12.80;99.90;;;;;;5024311;28;20027;-70
2023/05/15 02:36:56;;;;;;;16.67;11.50;;;12.80;99.90;;;;;;5028587;28;20039;-70
2023/05/15 02:39:23;;;;;;;18.80;11.98;;;12.80;99.90;;;;;;5027601;28;20010;-69
2023/05/15 02:41:51;;;;;;;19.17;11.90;;;12.80;99.90;;;;;;5027333;28;20029;-70
2023/05/15 02:44:17;;;;;;;20.05;12.40;;;12.80;99.90;;;;;;5026212;28;20018;-70
2023/05/15 02:46:44;;;;;;;18.38;13.18;;;12.80;99.90;;;;;;5027234;28;20248;-70
2023/05/15 02:49:11;;;;;;;19.67;14.07;;;12.80;99.90;;;;;;5027670;28;20022;-69
2023/05/15 02:51:36;;;;;;;25.17;13.63;;;12.70;99.90;;;;;;5026897;28;20072;-71
2023/05/15 02:54:02;;;;;;;24.70;15.83;;;12.80;99.90;;;;;;5027055;28;20045;-70
2023/05/15 02:56:28;;;;;;;20.05;15.23;;;12.80;99.90;;;;;;5027338;28;20383;-71
2023/05/15 02:58:54;;;;;;;23.47;16.40;;;12.70;99.90;;;;;;5024196;28;20040;-70
2023/05/15 03:01:20;;;;;;;23.55;16.50;;;12.70;99.90;;;;;;5027467;28;20029;-70
2023/05/15 03:03:46;;;;;;;25.50;16.85;;;12.70;99.90;;;;;;5029983;28;20044;-70
2023/05/15 03:06:12;;;;;;;32.30;18.98;;;12.70;99.90;;;;;;5031253;28;20034;-70
2023/05/15 03:08:37;;;;;;;34.40;19.63;;;12.70;99.90;;;;;;5025774;28;20037;-70
2023/05/15 03:11:03;;;;;;;31.63;19.50;;;12.70;99.90;;;;;;5030866;28;20560;-70
2023/05/15 03:13:29;;;;;;;30.47;20.07;;;12.70;99.90;;;;;;5032042;28;20036;-70
2023/05/15 03:15:54;;;;;;;28.87;20.80;;;12.70;99.90;;;;;;5031697;28;20476;-70
2023/05/15 03:18:20;;;;;;;31.80;22.10;;;12.60;99.90;;;;;;5030837;28;20549;-70
2023/05/15 03:20:48;;;;;;;28.87;21.00;;;12.60;99.90;;;;;;5031304;28;20283;-70
2023/05/15 03:23:13;;;;;;;34.72;23.08;;;12.60;99.90;;;;;;5026938;28;20133;-69
2023/05/15 03:25:39;;;;;;;33.97;22.23;;;12.70;99.90;;;;;;5030097;28;20040;-70
2023/05/15 03:28:04;;;;;;;31.17;22.23;;;12.70;99.90;;;;;;5030512;28;20104;-69
2023/05/15 03:30:30;;;;;;;35.43;22.63;;;12.70;99.90;;;;;;5031386;28;20868;-71
2023/05/15 03:32:56;;;;;;;36.97;22.70;;;12.70;99.90;;;;;;5029509;28;20037;-70
2023/05/15 03:35:22;;;;;;;40.95;23.50;;;12.70;99.90;;;;;;5030933;28;20033;-70
2023/05/15 03:37:48;;;;;;;46.13;24.60;;;12.70;99.90;;;;;;5031755;28;20409;-70
2023/05/15 03:40:13;;;;;;;36.27;23.03;;;12.70;99.90;;;;;;5030318;28;20635;-70
2023/05/15 03:42:39;;;;;;;35.97;25.70;;;12.70;99.90;;;;;;5030524;28;20566;-69
2023/05/15 03:45:05;;;;;;;36.77;23.13;;;12.70;99.90;;;;;;5030670;28;20024;-69
2023/05/15 03:47:31;;;;;;;34.45;23.52;;;12.70;99.90;;;;;;5030312;28;20271;-70
2023/05/15 03:49:56;;;;;;;37.37;24.20;;;12.80;99.90;;;;;;5031548;28;20766;-73
2023/05/15 03:52:22;;;;;;;34.40;24.80;;;12.70;99.90;;;;;;5030875;28;20096;-70
2023/05/15 03:54:48;;;;;;;39.53;24.70;;;12.80;99.90;;;;;;5031493;28;20397;-68
2023/05/15 03:57:14;;;;;;;38.15;24.48;;;12.70;99.90;;;;;;5029169;28;20037;-70
2023/05/15 03:59:40;;;;;;;42.40;25.13;;;12.70;99.90;;;;;;5064346;28;20471;-70
2023/05/15 04:02:06;;;;;;;40.03;25.52;;;12.60;99.90;;;;;;5038141;28;20041;-70
2023/05/15 04:04:31;;;;;;;43.63;24.93;;;12.60;99.90;;;;;;5031167;28;20152;-70
2023/05/15 04:06:57;;;;;;;37.60;25.37;;;12.60;99.90;;;;;;5030917;28;20280;-69
2023/05/15 04:09:22;;;;;;;40.47;26.17;;;12.70;99.90;;;;;;5030750;28;20501;-69
2023/05/15 04:11:48;;;;;;;37.60;25.17;;;12.70;99.90;;;;;;5030275;28;20096;-69
2023/05/15 04:14:13;;;;;;;39.97;25.03;;;12.70;99.90;;;;;;5030373;28;20036;-69
2023/05/15 04:16:39;;;;;;;39.17;25.87;;;12.70;99.90;;;;;;5029157;28;20468;-69
2023/05/15 04:19:05;;;;;;;43.30;27.20;;;12.70;99.90;;;;;;5028703;28;20029;-70
2023/05/15 04:21:30;;;;;;;40.13;26.30;;;12.80;99.90;;;;;;5029978;28;20397;-70
2023/05/15 04:23:56;;;;;;;45.67;27.90;;;12.80;99.90;;;;;;5030662;28;20575;-69
2023/05/15 04:26:21;;;;;;;38.13;23.67;;;12.80;99.90;;;;;;5029353;28;20052;-70
2023/05/15 04:28:47;;;;;;;44.77;26.07;;;12.80;99.90;;;;;;5030759;28;20391;-70
2023/05/15 04:31:13;;;;;;;43.10;27.50;;;12.80;99.90;;;;;;5029662;28;20021;-69
2023/05/15 04:33:38;;;;;;;39.53;25.07;;;12.80;99.90;;;;;;5028795;28;20039;-71
2023/05/15 04:36:05;;;;;;;51.03;25.57;;;12.80;99.90;;;;;;5035605;28;20044;-69
2023/05/15 04:38:31;;;;;;;36.58;25.90;;;12.80;99.90;;;;;;5033966;28;20034;-70
2023/05/15 04:40:57;;;;;;;38.17;25.47;;;12.80;99.90;;;;;;5031096;28;20036;-70
2023/05/15 04:43:22;;;;;;;37.20;24.03;;;12.80;99.90;;;;;;5027553;28;20323;-73
2023/05/15 04:45:48;;;;;;;38.57;26.00;;;12.90;99.90;;;;;;5026210;28;20348;-71
2023/05/15 04:48:14;;;;;;;41.57;25.67;;;12.90;99.90;;;;;;5024409;28;20033;-71
2023/05/15 04:50:39;;;;;;;47.67;26.83;;;12.90;99.90;;;;;;5026113;28;20331;-71
2023/05/15 04:53:05;;;;;;;43.53;24.42;;;12.90;99.90;;;;;;5025747;28;20033;-71
2023/05/15 04:55:31;;;;;;;41.47;26.40;;;12.80;99.90;;;;;;5032153;28;20084;-71
2023/05/15 04:57:56;;;;;;;40.60;26.67;;;12.80;99.90;;;;;;5035934;28;20501;-71
2023/05/15 05:00:22;;;;;;;39.23;26.27;;;12.80;99.90;;;;;;5032913;28;20038;-72
2023/05/15 05:02:48;;;;;;;39.38;25.50;;;12.80;99.90;;;;;;5026992;28;20056;-71
2023/05/15 05:05:14;;;;;;;40.23;26.57;;;13.00;99.90;;;;;;5030813;28;20100;-70
2023/05/15 05:07:40;;;;;;;41.33;26.37;;;12.90;99.90;;;;;;5029385;28;20284;-70
2023/05/15 05:10:06;;;;;;;46.07;28.60;;;12.90;99.90;;;;;;5061974;28;20071;-70
2023/05/15 05:12:32;;;;;;;42.05;27.20;;;12.90;99.90;;;;;;5032078;28;20037;-70
2023/05/15 05:14:57;;;;;;;42.23;28.17;;;12.90;99.90;;;;;;5031539;28;20516;-69
2023/05/15 05:17:23;;;;;;;38.77;26.53;;;12.90;99.90;;;;;;5026938;28;20034;-73
2023/05/15 05:19:48;;;;;;;35.60;26.23;;;12.80;99.90;;;;;;5025987;28;20433;-71
2023/05/15 05:22:14;;;;;;;45.17;27.27;;;12.90;99.90;;;;;;5026719;28;20797;-70
2023/05/15 05:24:39;;;;;;;42.13;25.93;;;12.90;99.90;;;;;;5027673;28;20116;-70
2023/05/15 05:27:05;;;;;;;40.80;27.63;;;12.90;99.90;;;;;;5042707;28;20143;-71
2023/05/15 05:29:31;;;;;;;41.67;27.93;;;12.90;99.90;;;;;;5027300;28;20086;-71
2023/05/15 05:31:57;;;;;;;43.53;26.87;;;12.90;99.90;;;;;;5027061;28;20272;-72
2023/05/15 05:34:23;;;;;;;50.53;28.17;;;12.90;99.90;;;;;;5029639;28;20344;-72
2023/05/15 05:36:48;;;;;;;46.80;28.87;;;13.00;99.90;;;;;;5026736;28;20296;-71
2023/05/15 05:39:15;;;;;;;47.15;30.23;;;13.00;99.90;;;;;;5025111;28;20040;-69
2023/05/15 05:41:41;;;;;;;50.47;29.05;;;13.00;99.90;;;;;;5038562;28;20105;-70
2023/05/15 05:44:07;;;;;;;41.50;28.23;;;13.10;99.90;;;;;;5030873;28;20499;-72
2023/05/15 05:46:33;;;;;;;44.00;28.40;;;13.10;99.90;;;;;;5028120;28;20036;-70
2023/05/15 05:48:58;;;;;;;41.70;27.60;;;13.10;99.90;;;;;;5033656;28;20033;-71
2023/05/15 05:51:25;;;;;;;42.92;28.30;;;13.10;99.90;;;;;;5029849;28;20037;-70
2023/05/15 05:53:50;;;;;;;43.80;28.27;;;13.10;99.90;;;;;;5029961;28;20025;-71
2023/05/15 05:56:16;;;;;;;39.57;26.07;;;13.10;99.90;;;;;;5030213;28;20041;-71
2023/05/15 05:58:42;;;;;;;39.17;27.80;;;13.30;99.90;;;;;;5027040;28;20033;-71
2023/05/15 06:01:07;;;;;;;40.50;27.97;;;13.30;99.90;;;;;;5027660;28;20029;-71
2023/05/15 06:03:33;;;;;;;44.50;28.83;;;13.40;99.90;;;;;;5031559;28;20319;-71
2023/05/15 06:05:59;;;;;;;38.85;26.88;;;13.40;99.90;;;;;;5027686;28;20033;-71
2023/05/15 06:08:25;;;;;;;51.40;29.27;;;13.60;99.90;;;;;;5030035;28;20029;-70
2023/05/15 06:10:51;;;;;;;45.97;28.93;;;13.80;99.90;;;;;;5031221;28;20052;-70
2023/05/15 06:13:16;;;;;;;43.87;27.37;;;13.90;99.90;;;;;;5030887;28;20286;-70
2023/05/15 06:15:42;;;;;;;42.80;25.33;;;13.90;99.90;;;;;;5029048;28;20032;-72
2023/05/15 06:18:08;;;;;;;42.03;27.50;;;13.90;99.90;;;;;;5027378;28;20037;-71
2023/05/15 06:20:33;;;;;;;43.07;28.77;;;13.90;99.90;;;;;;5026928;28;20644;-71
2023/05/15 06:22:59;;;;;;;42.53;29.47;;;13.90;99.90;;;;;;5034276;28;20116;-69
2023/05/15 06:25:27;;;;;;;48.30;28.05;;;13.90;99.90;;;;;;5030915;28;20039;-70
2023/05/15 06:27:52;;;;;;;44.22;30.08;;;14.10;99.90;;;;;;5038491;28;20034;-69
2023/05/15 06:30:18;;;;;;;43.50;28.37;;;14.40;99.90;;;;;;5041759;28;20128;-70
2023/05/15 06:32:44;;;;;;;39.17;27.93;;;14.50;99.90;;;;;;5041112;28;20033;-70
2023/05/15 06:35:10;;;;;;;39.40;27.35;;;14.30;99.90;;;;;;5032564;28;20494;-71
2023/05/15 06:37:36;;;;;;;44.97;28.05;;;14.40;99.90;;;;;;5032080;28;20579;-72
2023/05/15 06:40:03;;;;;;;43.75;27.27;;;14.30;99.90;;;;;;5031825;28;20033;-72
2023/05/15 06:42:29;;;;;;;44.72;29.60;;;14.20;99.90;;;;;;5035077;28;20397;-72
2023/05/15 06:44:55;;;;;;;42.20;29.02;;;14.10;99.90;;;;;;5031381;28;20025;-71
2023/05/15 06:47:21;;;;;;;43.97;27.63;;;14.20;99.90;;;;;;5029101;28;20040;-73
2023/05/15 06:49:47;;;;;;;46.77;28.57;;;14.20;99.90;;;;;;5031335;28;20030;-70
2023/05/15 06:52:12;;;;;;;41.97;27.53;;;14.20;99.90;;;;;;5025594;28;20078;-71
2023/05/15 06:54:39;;;;;;;50.23;30.97;;;13.90;99.90;;;;;;5028047;28;20076;-71
2023/05/15 06:57:05;;;;;;;47.80;31.10;;;14.00;99.90;;;;;;5025125;28;20525;-71
2023/05/15 06:59:33;;;;;;;42.53;29.30;;;14.10;99.90;;;;;;5025310;28;20556;-71
2023/05/15 07:01:59;;;;;;;40.40;28.42;;;14.20;99.90;;;;;;5025034;28;20288;-70
2023/05/15 07:04:25;;;;;;;40.93;28.10;;;14.40;99.90;;;;;;5022245;28;20033;-70
2023/05/15 07:06:50;;;;;;;44.88;29.67;;;14.50;99.90;;;;;;5028587;28;20034;-71
2023/05/15 07:09:16;;;;;;;50.10;29.23;;;14.50;99.90;;;;;;5046499;28;20595;-71
2023/05/15 07:11:41;;;;;;;51.23;32.03;;;14.50;99.90;;;;;;5029359;28;20038;-71
2023/05/15 07:14:07;;;;;;;43.37;29.20;;;14.50;99.90;;;;;;5028657;28;20519;-71
2023/05/15 07:16:32;;;;;;;85.90;43.20;;;14.50;99.90;;;;;;5027856;28;20098;-70
2023/05/15 07:18:59;;;;;;;47.47;29.47;;;14.50;99.90;;;;;;5032191;28;20100;-70
2023/05/15 07:21:24;;;;;;;54.17;29.48;;;14.90;99.90;;;;;;5029810;28;20025;-70
2023/05/15 07:23:50;;;;;;;48.90;29.77;;;14.60;99.90;;;;;;5031076;28;20029;-71
2023/05/15 07:26:15;;;;;;;46.60;29.60;;;14.40;99.90;;;;;;5025903;28;20093;-71
2023/05/15 07:28:41;;;;;;;46.23;29.63;;;14.30;99.90;;;;;;5025520;28;20029;-71
2023/05/15 07:31:07;;;;;;;51.17;30.40;;;14.30;99.90;;;;;;5030539;28;20517;-72
2023/05/15 07:33:33;;;;;;;50.42;32.42;;;14.20;99.90;;;;;;5031883;28;20124;-70
2023/05/15 07:35:58;;;;;;;46.40;29.53;;;14.20;99.90;;;;;;5034981;28;20120;-71
2023/05/15 07:38:24;;;;;;;45.77;30.20;;;14.20;99.90;;;;;;5032943;28;20489;-71
2023/05/15 07:40:50;;;;;;;47.73;28.73;;;14.70;99.90;;;;;;5031365;28;20079;-72
2023/05/15 07:43:16;;;;;;;43.90;29.17;;;15.50;99.90;;;;;;5029128;28;20028;-72
2023/05/15 07:45:41;;;;;;;42.93;29.63;;;15.70;99.90;;;;;;5031420;28;20076;-72
2023/05/15 07:48:18;;;;;;;43.57;27.93;;;16.50;99.90;;;;;;5031980;28;20064;-70
2023/05/15 07:50:45;;;;;;;48.00;26.40;;;16.80;99.90;;;;;;5060987;28;20041;-70
2023/05/15 07:53:17;;;;;;;41.28;28.17;;;16.30;99.90;;;;;;5030624;28;20029;-69
2023/05/15 07:55:43;;;;;;;39.67;27.10;;;15.70;99.90;;;;;;5032055;28;20107;-72
2023/05/15 07:58:09;;;;;;;46.20;26.90;;;15.50;99.90;;;;;;5025912;28;20464;-70
2023/05/15 08:00:35;;;;;;;41.38;27.33;;;15.60;99.90;;;;;;5027875;28;20038;-71
2023/05/15 08:03:01;;;;;;;37.60;27.20;;;15.60;99.90;;;;;;5030794;28;20113;-70
2023/05/15 08:05:28;;;;;;;42.35;27.02;;;15.90;99.90;;;;;;5037305;28;20485;-70
2023/05/15 08:07:54;;;;;;;52.85;27.25;;;15.90;99.90;;;;;;5031205;28;20026;-71
2023/05/15 08:10:20;;;;;;;44.28;26.25;;;16.50;99.90;;;;;;5028122;28;20593;-71
2023/05/15 08:12:47;;;;;;;39.97;26.50;;;17.30;99.90;;;;;;5038367;28;20028;-71
2023/05/15 08:15:13;;;;;;;35.22;25.02;;;17.70;99.90;;;;;;5035218;28;20041;-70
2023/05/15 08:17:39;;;;;;;40.10;25.08;;;18.00;99.90;;;;;;5029135;28;20065;-72
2023/05/15 08:20:08;;;;;;;49.90;31.70;;;19.30;99.90;;;;;;5026227;28;20037;-71
2023/05/15 08:22:34;;;;;;;78.35;26.83;;;19.00;99.90;;;;;;5026333;28;20032;-71
2023/05/15 08:25:02;;;;;;;47.83;24.20;;;19.10;99.90;;;;;;5031520;28;20037;-70
2023/05/15 08:27:28;;;;;;;40.60;24.58;;;18.40;99.90;;;;;;5025775;28;20539;-73
2023/05/15 08:29:53;;;;;;;37.00;24.37;;;18.50;99.90;;;;;;5030004;28;20041;-72
2023/05/15 08:32:19;;;;;;;39.77;23.60;;;18.80;99.90;;;;;;5027049;28;20136;-74
2023/05/15 08:34:45;;;;;;;34.23;22.20;;;18.80;99.90;;;;;;5028358;28;20041;-72
2023/05/15 08:37:10;;;;;;;35.20;21.67;;;19.10;99.90;;;;;;5028326;28;20045;-73
2023/05/15 08:39:36;;;;;;;31.00;21.63;;;18.90;99.90;;;;;;5028198;28;20033;-72
2023/05/15 08:42:20;;;;;;;34.10;21.07;;;19.80;98.70;;;;;;5031331;28;20037;-72
2023/05/15 08:44:46;;;;;;;33.80;20.90;;;19.90;97.70;;;;;;5024265;28;20064;-72
2023/05/15 08:47:14;;;;;;;30.92;19.08;;;20.50;97.60;;;;;;5023673;28;20037;-74
2023/05/15 08:50:04;;;;;;;34.50;18.00;;;20.80;94.70;;;;;;5030766;28;20729;-73
2023/05/15 08:52:34;;;;;;;27.48;17.88;;;20.70;95.10;;;;;;5039874;28;20079;-71
2023/05/15 08:55:00;;;;;;;30.52;18.70;;;20.20;93.80;;;;;;5029004;28;20036;-73
2023/05/15 08:57:27;;;;;;;29.33;18.67;;;20.60;93.90;;;;;;5029399;28;20033;-73
2023/05/15 08:59:53;;;;;;;;;;;21.70;93.30;;;;;;5020277;28;20036;-72
2023/05/15 09:02:19;;;;;;;24.75;17.92;;;20.90;92.60;;;;;;5028550;28;19913;-72
2023/05/15 09:04:45;;;;;;;26.30;18.42;;;20.40;93.50;;;;;;5029314;28;20509;-74
2023/05/15 09:07:11;;;;;;;28.83;18.40;;;21.50;92.90;;;;;;5030757;28;20651;-73
2023/05/15 09:09:38;;;;;;;28.23;18.95;;;21.40;91.60;;;;;;5026344;28;20042;-75
2023/05/15 09:12:05;;;;;;;26.67;15.20;;;22.80;90.80;;;;;;5030934;28;20051;-72
2023/05/15 09:14:31;;;;;;;23.80;15.45;;;21.90;87.40;;;;;;5025606;28;20132;-71
2023/05/15 09:16:57;;;;;;;24.40;16.87;;;20.80;90.00;;;;;;5028637;28;20095;-73
2023/05/15 09:19:22;;;;;;;21.98;15.45;;;20.40;91.20;;;;;;5039392;28;20284;-72
2023/05/15 09:21:48;;;;;;;25.17;16.13;;;21.60;90.20;;;;;;5036871;28;20123;-76
2023/05/15 09:24:22;;;;;;;28.20;16.23;;;23.40;87.30;;;;;;5034971;28;20397;-76
2023/05/15 09:27:03;;;;;;;24.65;14.05;;;25.60;79.30;;;;;;5031025;28;20065;-75
2023/05/15 09:29:30;;;;;;;23.67;14.60;;;26.10;78.60;;;;;;5027952;28;20017;-73
2023/05/15 09:31:56;;;;;;;18.98;14.02;;;26.50;74.70;;;;;;5033534;28;20025;-73
2023/05/15 09:34:32;;;;;;;16.95;13.05;;;25.70;75.50;;;;;;5033122;28;20034;-74
2023/05/15 09:37:00;;;;;;;19.05;14.02;;;27.40;74.20;;;;;;5030703;28;20175;-73
2023/05/15 09:39:26;;;;;;;27.90;14.00;;;27.50;71.90;;;;;;5024309;28;20026;-73
2023/05/15 09:41:53;;;;;;;20.35;16.20;;;25.00;72.10;;;;;;5027933;28;20040;-74
2023/05/15 09:44:27;;;;;;;17.05;12.18;;;26.30;73.80;;;;;;5042864;28;20033;-74
2023/05/15 09:46:53;;;;;;;19.17;11.65;;;27.40;71.20;;;;;;5019859;28;20030;-77
2023/05/15 09:49:19;;;;;;;17.52;14.38;;;27.70;69.80;;;;;;5031013;28;20037;-73
2023/05/15 09:51:47;;;;;;;16.33;11.68;;;26.90;71.00;;;;;;5028866;28;20084;-73
2023/05/15 09:54:21;;;;;;;16.83;13.30;;;27.60;68.60;;;;;;5026343;28;20349;-75
2023/05/15 09:56:47;;;;;;;15.88;10.77;;;29.10;69.50;;;;;;5030093;28;20049;-71
2023/05/15 09:59:17;;;;;;;17.52;11.10;;;29.50;65.60;;;;;;5027089;28;20122;-71
2023/05/15 10:01:44;;;;;;;15.20;10.52;;;28.00;65.80;;;;;;5032469;28;20512;-76
2023/05/15 10:04:11;;;;;;;13.25;10.73;;;29.20;66.90;;;;;;5026947;28;20032;-73
2023/05/15 10:06:41;;;;;;;13.85;10.85;;;26.80;65.60;;;;;;5031545;28;20492;-78
2023/05/15 10:09:09;;;;;;;12.13;10.30;;;25.20;68.50;;;;;;5031157;28;20112;-73
2023/05/15 10:11:36;;;;;;;15.43;9.27;;;24.40;70.90;;;;;;5030852;28;20144;-76
2023/05/15 10:14:10;;;;;;;13.38;9.88;;;24.40;72.10;;;;;;5038120;28;20032;-77
2023/05/15 10:16:37;;;;;;;18.30;10.00;;;25.30;69.10;;;;;;5025598;28;20096;-73
2023/05/15 10:19:07;;;;;;;12.90;10.75;;;24.40;69.50;;;;;;5028805;28;20521;-74
2023/05/15 10:21:35;;;;;;;18.60;12.63;;;22.70;74.10;;;;;;5018880;28;20103;-73
2023/05/15 10:24:03;;;;;;;23.70;12.52;;;23.10;75.60;;;;;;5028251;28;21284;-75
2023/05/15 10:26:38;;;;;;;19.55;11.32;;;24.00;75.30;;;;;;5025603;28;20029;-71
2023/05/15 10:29:06;;;;;;;16.02;11.90;;;23.60;74.90;;;;;;5027327;28;20409;-71
2023/05/15 10:31:33;;;;;;;22.83;11.60;;;23.30;76.40;;;;;;5026263;28;20040;-71
2023/05/15 10:34:00;;;;;;;12.65;10.27;;;23.10;76.80;;;;;;5028853;28;20029;-72
2023/05/15 10:36:26;;;;;;;14.27;9.93;;;23.10;78.00;;;;;;5025951;28;20037;-71
2023/05/15 10:38:52;;;;;;;16.60;10.73;;;22.90;77.20;;;;;;5030545;28;20028;-75
2023/05/15 10:41:20;;;;;;;11.60;9.43;;;22.40;76.30;;;;;;5026748;28;20117;-74
2023/05/15 10:43:48;;;;;;;14.95;9.85;;;22.10;78.40;;;;;;5029126;28;20057;-76
2023/05/15 10:46:15;;;;;;;15.27;10.25;;;22.10;79.00;;;;;;5027163;28;20026;-75
2023/05/15 10:48:41;;;;;;;18.25;12.43;;;22.20;78.30;;;;;;5028286;28;20056;-74
2023/05/15 10:51:17;;;;;;;15.95;11.48;;;21.80;79.30;;;;;;5032393;28;20037;-75
2023/05/15 10:53:44;;;;;;;15.45;11.82;;;21.30;79.60;;;;;;5027725;28;20037;-75
2023/05/15 10:56:15;;;;;;;15.00;11.77;;;21.10;82.20;;;;;;5027537;28;20030;-79
2023/05/15 10:58:53;;;;;;;21.92;12.27;;;21.20;81.20;;;;;;5034137;28;20117;-76
2023/05/15 11:01:33;;;;;;;18.35;12.48;;;21.40;80.70;;;;;;5058513;28;20097;-73
2023/05/15 11:04:06;;;;;;;17.27;12.32;;;21.10;79.60;;;;;;5039785;28;20057;-76
2023/05/15 11:06:32;;;;;;;15.25;11.07;;;21.10;79.00;;;;;;5028427;28;20026;-74
2023/05/15 11:09:20;;;;;;;17.50;12.25;;;21.30;80.30;;;;;;5030389;28;20025;-77
2023/05/15 11:11:51;;;;;;;;;;;21.70;79.80;;;;;;5031881;28;20024;-73
2023/05/15 11:14:25;;;;;;;17.20;13.98;;;21.90;81.00;;;;;;5028405;28;19913;-79
2023/05/15 11:16:53;;;;;;;18.08;13.73;;;21.80;80.90;;;;;;5045713;28;20052;-76
2023/05/15 11:19:23;;;;;;;18.27;12.88;;;22.20;81.20;;;;;;5028544;28;20022;-77
2023/05/15 11:21:58;;;;;;;22.35;13.18;;;22.00;79.70;;;;;;5031094;28;20478;-75
2023/05/15 11:24:29;;;;;;;21.70;14.73;;;21.50;79.10;;;;;;5047434;28;20033;-79
2023/05/15 11:27:02;;;;;;;31.52;13.75;;;21.40;81.20;;;;;;5034821;28;20103;-80
2023/05/15 11:29:28;;;;;;;31.70;13.80;;;21.40;78.80;;;;;;5032306;28;20020;-75
2023/05/15 11:31:54;;;;;;;23.13;11.52;;;21.40;80.10;;;;;;5038500;28;20040;-77
2023/05/15 11:34:41;;;;;;;23.23;13.05;;;21.10;79.10;;;;;;5031782;28;20038;-78
2023/05/15 11:37:16;;;;;;;20.23;13.13;;;21.20;81.60;;;;;;5033329;28;20814;-78
2023/05/15 11:39:43;;;;;;;19.65;12.18;;;21.20;82.80;;;;;;5033388;28;20278;-77
2023/05/15 11:42:12;;;;;;;20.20;12.10;;;21.20;81.20;;;;;;5032718;28;20036;-73
2023/05/15 11:44:39;;;;;;;22.80;14.23;;;21.30;80.80;;;;;;5030252;28;20018;-75
2023/05/15 11:47:09;;;;;;;18.08;12.50;;;21.60;77.60;;;;;;5060825;28;20032;-75
2023/05/15 11:49:37;;;;;;;47.67;30.23;;;21.40;77.40;;;;;;5030617;28;20029;-79
2023/05/15 11:52:03;;;;;;;31.00;19.25;;;21.30;80.00;;;;;;5028301;28;20029;-77
2023/05/15 11:54:29;;;;;;;25.10;14.98;;;21.10;79.90;;;;;;5030961;28;20086;-76
2023/05/15 11:56:56;;;;;;;22.00;14.38;;;20.90;80.60;;;;;;5036644;28;20247;-75
2023/05/15 11:59:25;;;;;;;22.33;15.30;;;21.40;80.00;;;;;;5030828;28;20057;-79
2023/05/15 12:01:51;;;;;;;26.67;15.60;;;21.00;78.10;;;;;;5033921;28;20030;-73
2023/05/15 12:04:17;;;;;;;23.80;15.53;;;20.70;81.20;;;;;;5031327;28;20398;-81
2023/05/15 12:06:46;;;;;;;128.05;77.22;;;20.70;80.20;;;;;;5030255;28;20287;-75
2023/05/15 12:09:17;;;;;;;19.80;14.60;;;20.60;83.40;;;;;;5040135;28;20034;-74
2023/05/15 12:11:54;;;;;;;20.58;14.68;;;21.20;81.80;;;;;;5033177;28;20036;-72
2023/05/15 12:14:30;;;;;;;26.63;14.75;;;20.80;82.70;;;;;;5034176;28;20037;-73
2023/05/15 12:17:03;;;;;;;17.20;14.00;;;20.90;83.30;;;;;;5027948;28;20080;-74
2023/05/15 12:19:29;;;;;;;40.47;26.58;;;21.20;82.90;;;;;;5026557;28;20045;-73
2023/05/15 12:21:55;;;;;;;25.92;15.25;;;21.60;78.80;;;;;;5035030;28;20555;-73
2023/05/15 12:24:21;;;;;;;17.03;12.90;;;21.70;78.80;;;;;;5025901;28;20021;-72
2023/05/15 12:26:47;;;;;;;22.30;13.98;;;21.90;79.80;;;;;;5031389;28;20500;-73
2023/05/15 12:29:14;;;;;;;23.02;13.98;;;21.90;82.80;;;;;;5031172;28;20035;-73